Terminal Aerodrome Forecast
Issued by NWS Jackson, KY

Home | Current Version | Previous Version | Text Only | Print | Product List | Glossary On
Versions: 1 2 3 4 5 6 7 8 9 10 11 12 13 14 15 16 17 18 19
000
FTUS43 KJKL 261700
TAFJKL
TAF
KJKL 261736Z 2618/2718 VRB03KT P6SM SCT150 BKN250
     FM270600 VRB03KT P6SM VCTS SCT040CB BKN100
      TEMPO 2706/2710 VRB10G20KT 4SM +TSRA BR BKN025CB
     FM271500 23008KT P6SM VCTS SCT040CB BKN100=

USA.gov is the U.S. government's official web portal to all federal, state and local government web resources and services.